createdAt,value
2024-02-15T00:00:09.617Z,15.35
2024-02-15T00:02:37.029Z,17.17
2024-02-15T00:05:04.461Z,14.85
2024-02-15T00:07:33.185Z,15.25
2024-02-15T00:10:00.445Z,16.10
2024-02-15T00:12:27.720Z,13.75
2024-02-15T00:14:55.168Z,15.63
2024-02-15T00:17:22.410Z,17.02
2024-02-15T00:19:49.823Z,18.25
2024-02-15T00:22:17.044Z,16.35
2024-02-15T00:24:45.393Z,15.43
2024-02-15T00:27:12.970Z,13.05
2024-02-15T00:29:41.938Z,13.02
2024-02-15T00:32:09.377Z,13.77
2024-02-15T00:34:39.867Z,12.18
2024-02-15T00:37:07.611Z,11.75
2024-02-15T00:39:34.833Z,10.77
2024-02-15T00:42:02.303Z,12.70
2024-02-15T00:44:29.652Z,9.63
2024-02-15T00:46:57.499Z,10.15
2024-02-15T00:49:25.488Z,9.65
2024-02-15T00:51:52.925Z,12.75
2024-02-15T00:54:20.252Z,11.88
2024-02-15T00:56:47.728Z,9.68
2024-02-15T00:59:15.654Z,12.00
2024-02-15T01:01:42.982Z,11.23
2024-02-15T01:04:10.538Z,9.52
2024-02-15T01:06:38.045Z,9.25
2024-02-15T01:09:05.663Z,7.78
2024-02-15T01:11:39.163Z,9.30
2024-02-15T01:16:38.565Z,7.45
2024-02-15T01:19:06.764Z,11.65
2024-02-15T01:21:37.795Z,9.13
2024-02-15T01:24:08.197Z,7.35
2024-02-15T01:26:36.125Z,6.70
2024-02-15T01:29:04.789Z,7.95
2024-02-15T01:31:32.218Z,7.30
2024-02-15T01:33:59.593Z,8.90
2024-02-15T01:36:27.732Z,9.25
2024-02-15T01:38:55.046Z,7.22
2024-02-15T01:41:22.383Z,8.80
2024-02-15T01:43:51.440Z,12.13
2024-02-15T01:46:19.341Z,7.18
2024-02-15T01:48:47.366Z,7.22
2024-02-15T01:51:17.520Z,8.02
2024-02-15T01:53:45.409Z,6.75
2024-02-15T01:56:15.351Z,7.30
2024-02-15T01:58:44.235Z,6.88
2024-02-15T02:01:12.854Z,6.68
2024-02-15T02:03:41.013Z,7.95
2024-02-15T02:06:09.060Z,8.27
2024-02-15T02:08:36.734Z,6.60
2024-02-15T02:11:05.335Z,7.38
2024-02-15T02:13:32.595Z,7.53
2024-02-15T02:16:12.607Z,6.07
2024-02-15T02:18:40.434Z,6.30
2024-02-15T02:21:07.827Z,6.32
2024-02-15T02:23:35.508Z,4.78
2024-02-15T02:26:02.929Z,7.88
2024-02-15T02:28:30.171Z,5.22
2024-02-15T02:30:57.863Z,5.70
2024-02-15T02:33:26.454Z,7.80
2024-02-15T02:35:53.877Z,5.28
2024-02-15T02:38:21.195Z,4.38
2024-02-15T02:40:51.307Z,6.50
2024-02-15T02:43:19.181Z,6.05
2024-02-15T02:45:49.523Z,7.10
2024-02-15T02:48:17.083Z,5.22
2024-02-15T02:50:44.399Z,5.75
2024-02-15T02:53:12.297Z,5.15
2024-02-15T02:55:39.780Z,3.83
2024-02-15T02:58:08.968Z,7.15
2024-02-15T03:00:36.567Z,5.68
2024-02-15T03:03:04.250Z,5.13
2024-02-15T03:05:31.631Z,6.15
2024-02-15T03:07:58.976Z,5.72
2024-02-15T03:10:26.246Z,5.80
2024-02-15T03:12:54.080Z,6.45
2024-02-15T03:15:21.904Z,5.00
2024-02-15T03:17:50.383Z,5.05
2024-02-15T03:20:26.949Z,4.05
2024-02-15T03:22:59.220Z,3.28
2024-02-15T03:25:27.961Z,7.65
2024-02-15T03:27:57.497Z,4.00
2024-02-15T03:30:30.831Z,4.95
2024-02-15T03:32:59.305Z,6.35
2024-02-15T03:35:30.207Z,5.45
2024-02-15T03:37:57.813Z,4.85
2024-02-15T03:40:28.063Z,5.70
2024-02-15T03:42:55.621Z,5.43
2024-02-15T03:45:26.447Z,6.00
2024-02-15T03:47:55.049Z,5.63
2024-02-15T03:50:25.265Z,4.78
2024-02-15T03:52:52.941Z,4.50
2024-02-15T03:55:21.214Z,6.53
2024-02-15T03:57:48.530Z,6.68
2024-02-15T04:00:22.800Z,3.83
2024-02-15T04:02:51.215Z,3.72
2024-02-15T04:05:20.380Z,7.85
2024-02-15T04:07:47.902Z,5.00
2024-02-15T04:10:15.692Z,4.40
2024-02-15T04:12:45.612Z,6.43
2024-02-15T04:15:14.181Z,5.80
2024-02-15T04:17:43.992Z,6.15
2024-02-15T04:20:13.638Z,3.92
2024-02-15T04:22:44.250Z,5.82
2024-02-15T04:25:12.531Z,5.75
2024-02-15T04:27:40.685Z,6.43
2024-02-15T04:30:09.700Z,6.50
2024-02-15T04:32:38.109Z,9.10
2024-02-15T04:35:09.031Z,5.18
2024-02-15T04:37:38.897Z,6.20
2024-02-15T04:40:11.959Z,7.85
2024-02-15T04:45:12.142Z,7.47
2024-02-15T04:47:41.791Z,8.38
2024-02-15T04:50:10.700Z,5.93
2024-02-15T04:52:38.427Z,6.03
2024-02-15T04:55:07.093Z,8.77
2024-02-15T04:57:37.870Z,5.15
2024-02-15T05:00:12.420Z,8.77
2024-02-15T05:02:44.945Z,7.50
2024-02-15T05:05:14.472Z,6.55
2024-02-15T05:07:44.614Z,7.20
2024-02-15T05:10:12.431Z,5.93
2024-02-15T05:12:41.719Z,5.07
2024-02-15T05:15:13.221Z,4.85
2024-02-15T05:17:44.844Z,7.72
2024-02-15T05:20:15.016Z,7.10
2024-02-15T05:22:50.142Z,8.75
2024-02-15T05:25:26.156Z,6.43
2024-02-15T05:27:56.825Z,7.40
2024-02-15T05:30:25.096Z,9.52
2024-02-15T05:32:55.142Z,11.50
2024-02-15T05:35:26.285Z,8.82
2024-02-15T05:37:57.555Z,7.68
2024-02-15T05:40:24.976Z,9.43
2024-02-15T05:42:58.080Z,9.25
2024-02-15T05:45:26.274Z,6.55
2024-02-15T05:47:54.371Z,6.30
2024-02-15T05:50:22.815Z,14.00
2024-02-15T05:52:50.343Z,9.88
2024-02-15T05:55:18.651Z,7.60
2024-02-15T05:57:46.181Z,9.05
2024-02-15T06:00:21.925Z,11.43
2024-02-15T06:02:51.510Z,6.50
2024-02-15T06:05:19.804Z,8.45
2024-02-15T06:07:48.306Z,8.02
2024-02-15T06:10:16.982Z,8.70
2024-02-15T06:12:44.629Z,9.73
2024-02-15T06:15:17.259Z,11.82
2024-02-15T06:20:19.750Z,16.38
2024-02-15T06:22:50.909Z,15.50
2024-02-15T06:25:23.025Z,19.20
2024-02-15T06:27:52.827Z,15.13
2024-02-15T06:30:38.769Z,15.50
2024-02-15T06:33:24.665Z,12.23
2024-02-15T06:36:10.734Z,11.88
2024-02-15T06:38:56.590Z,10.70
2024-02-15T06:41:27.117Z,10.32
2024-02-15T06:43:54.978Z,9.93
2024-02-15T06:46:23.054Z,14.45
2024-02-15T06:48:50.945Z,12.32
2024-02-15T06:51:18.690Z,15.57
2024-02-15T06:53:45.996Z,11.68
2024-02-15T06:56:15.474Z,13.82
2024-02-15T06:58:42.925Z,15.48
2024-02-15T07:01:10.505Z,16.52
2024-02-15T07:03:38.031Z,15.10
2024-02-15T07:06:05.536Z,15.43
2024-02-15T07:08:33.597Z,11.27
2024-02-15T07:11:01.056Z,18.73
2024-02-15T07:13:28.491Z,13.88
2024-02-15T07:15:55.894Z,21.00
2024-02-15T07:18:27.900Z,22.75
2024-02-15T07:21:00.001Z,16.27
2024-02-15T07:23:27.358Z,19.77
2024-02-15T07:25:55.507Z,17.80
2024-02-15T07:28:22.981Z,18.25
2024-02-15T07:30:53.707Z,23.63
2024-02-15T07:33:22.555Z,13.25
2024-02-15T07:35:53.206Z,18.50
2024-02-15T07:38:24.414Z,11.73
2024-02-15T07:40:52.064Z,12.00
2024-02-15T07:43:19.320Z,12.80
2024-02-15T07:45:49.200Z,12.25
2024-02-15T07:48:16.734Z,13.75
2024-02-15T07:50:45.443Z,12.75
2024-02-15T07:53:13.370Z,21.42
2024-02-15T07:55:40.952Z,13.00
2024-02-15T07:58:08.460Z,13.00
2024-02-15T08:00:36.592Z,13.38
2024-02-15T08:03:04.614Z,14.18
2024-02-15T08:05:33.631Z,11.85
2024-02-15T08:08:02.328Z,12.07
2024-02-15T08:10:30.494Z,14.00
2024-02-15T08:12:59.762Z,15.40
2024-02-15T08:15:29.557Z,15.45
2024-02-15T08:17:57.471Z,18.35
2024-02-15T08:20:27.253Z,13.95
2024-02-15T08:22:54.499Z,15.93
2024-02-15T08:25:21.911Z,12.68
2024-02-15T08:27:51.709Z,11.25
2024-02-15T08:30:22.762Z,9.93
2024-02-15T08:32:54.919Z,8.13
2024-02-15T08:35:22.890Z,10.35
2024-02-15T08:37:53.069Z,6.90
2024-02-15T08:40:26.326Z,7.68
2024-02-15T08:42:54.242Z,11.45
2024-02-15T08:45:22.126Z,6.78
2024-02-15T08:47:51.444Z,6.35
2024-02-15T08:50:19.233Z,9.98
2024-02-15T08:52:48.237Z,4.90
2024-02-15T08:55:16.056Z,7.00
2024-02-15T08:57:45.807Z,8.20
2024-02-15T09:00:18.413Z,10.23
2024-02-15T09:02:47.420Z,8.45
2024-02-15T09:05:16.520Z,7.45
2024-02-15T09:07:48.893Z,15.07
2024-02-15T09:10:18.550Z,12.43
2024-02-15T09:12:51.096Z,9.18
2024-02-15T09:15:19.087Z,12.32
2024-02-15T09:17:47.581Z,8.45
2024-02-15T09:20:17.213Z,8.15
2024-02-15T09:22:53.338Z,8.57
2024-02-15T09:25:21.793Z,5.72
2024-02-15T09:27:48.942Z,5.05
2024-02-15T09:30:17.715Z,5.05
2024-02-15T09:32:46.633Z,4.57
2024-02-15T09:35:15.348Z,3.25
2024-02-15T09:37:50.650Z,2.72
2024-02-15T09:40:19.577Z,7.75
2024-02-15T09:42:49.117Z,5.82
2024-02-15T09:45:18.008Z,5.63
2024-02-15T09:47:46.287Z,6.15
2024-02-15T09:50:16.219Z,7.93
2024-02-15T09:52:47.358Z,13.40
2024-02-15T09:55:17.601Z,9.10
2024-02-15T09:57:48.320Z,10.15
2024-02-15T10:00:18.394Z,13.60
2024-02-15T10:02:49.312Z,18.67
2024-02-15T10:05:18.868Z,11.68
2024-02-15T10:07:47.862Z,8.50
2024-02-15T10:10:27.056Z,6.88
2024-02-15T10:12:56.231Z,8.45
2024-02-15T10:15:41.880Z,4.22
2024-02-15T10:18:12.809Z,4.55
2024-02-15T10:20:42.678Z,3.72
2024-02-15T10:23:11.795Z,9.02
2024-02-15T10:25:40.650Z,10.93
2024-02-15T10:28:12.539Z,7.82
2024-02-15T10:30:44.841Z,7.07
2024-02-15T10:33:22.120Z,8.10
2024-02-15T10:35:49.711Z,5.07
2024-02-15T10:38:19.377Z,3.85
2024-02-15T10:40:48.303Z,3.70
2024-02-15T10:43:18.587Z,5.05
2024-02-15T10:45:46.973Z,5.63
2024-02-15T10:48:17.229Z,6.70
2024-02-15T10:50:48.173Z,8.15
2024-02-15T10:53:33.929Z,7.85
2024-02-15T10:56:07.719Z,7.60
2024-02-15T10:58:44.711Z,3.50
2024-02-15T11:01:14.768Z,7.50
2024-02-15T11:03:52.970Z,3.80
2024-02-15T11:06:23.226Z,3.92
2024-02-15T11:08:51.515Z,4.80
2024-02-15T11:11:19.826Z,3.28
2024-02-15T11:13:50.497Z,3.45
2024-02-15T11:16:47.031Z,3.92
2024-02-15T11:19:40.710Z,3.85
2024-02-15T11:22:13.369Z,4.45
2024-02-15T11:24:52.498Z,2.75
2024-02-15T11:27:30.520Z,5.68
2024-02-15T11:30:11.477Z,4.43
2024-02-15T11:32:55.324Z,3.47
2024-02-15T11:35:27.548Z,3.05
2024-02-15T11:38:05.695Z,3.08
2024-02-15T11:40:45.597Z,2.72
2024-02-15T11:43:51.257Z,2.97
2024-02-15T11:46:20.612Z,3.53
2024-02-15T11:48:49.087Z,4.05
2024-02-15T11:51:44.252Z,3.45
2024-02-15T11:54:13.409Z,3.65
2024-02-15T11:56:50.513Z,5.63
2024-02-15T11:59:30.801Z,3.58
2024-02-15T12:02:17.053Z,3.40
2024-02-15T12:05:03.806Z,3.70
2024-02-15T12:07:50.959Z,2.70
2024-02-15T12:10:37.765Z,3.80
2024-02-15T12:13:23.944Z,5.13
2024-02-15T12:16:20.279Z,3.50
2024-02-15T12:18:54.056Z,4.57
2024-02-15T12:21:29.289Z,2.78
2024-02-15T12:23:57.617Z,4.72
2024-02-15T12:26:25.343Z,4.93
2024-02-15T12:28:57.615Z,3.30
2024-02-15T12:31:28.075Z,3.67
2024-02-15T12:34:03.158Z,2.70
2024-02-15T12:36:33.713Z,4.90
2024-02-15T12:39:12.403Z,5.47
2024-02-15T12:41:44.286Z,3.53
2024-02-15T12:44:14.375Z,4.45
2024-02-15T12:46:42.146Z,6.18
2024-02-15T12:49:20.859Z,3.83
2024-02-15T12:51:56.503Z,6.75
2024-02-15T12:54:25.501Z,3.50
2024-02-15T12:57:11.536Z,5.07
2024-02-15T12:59:39.751Z,9.38
2024-02-15T13:02:07.546Z,4.95
2024-02-15T13:04:34.870Z,5.93
2024-02-15T13:07:02.860Z,6.88
2024-02-15T13:09:31.160Z,4.93
2024-02-15T13:11:59.863Z,6.75
2024-02-15T13:14:30.744Z,9.63
2024-02-15T13:16:59.104Z,3.53
2024-02-15T13:19:26.408Z,6.88
2024-02-15T13:21:54.472Z,5.82
2024-02-15T13:24:27.585Z,8.80
2024-02-15T13:27:01.241Z,3.92
2024-02-15T13:29:28.873Z,7.18
2024-02-15T13:31:56.180Z,9.55
2024-02-15T13:34:23.596Z,8.65
2024-02-15T13:36:51.324Z,9.20
2024-02-15T13:39:22.162Z,5.63
2024-02-15T13:41:49.542Z,6.28
2024-02-15T13:44:17.844Z,3.08
2024-02-15T13:46:45.560Z,5.85
2024-02-15T13:49:23.033Z,4.45
2024-02-15T13:51:57.078Z,4.07
2024-02-15T13:54:24.411Z,5.07
2024-02-15T13:56:51.804Z,8.23
2024-02-15T13:59:20.235Z,6.35
2024-02-15T14:01:47.389Z,4.15
2024-02-15T14:04:14.698Z,5.45
2024-02-15T14:06:42.129Z,4.93
2024-02-15T14:09:12.570Z,7.53
2024-02-15T14:11:40.859Z,7.03
2024-02-15T14:14:08.137Z,5.47
2024-02-15T14:16:35.700Z,5.28
2024-02-15T14:19:05.311Z,8.30
2024-02-15T14:21:34.904Z,6.15
2024-02-15T14:24:02.349Z,6.90
2024-02-15T14:26:32.889Z,6.18
2024-02-15T14:29:03.077Z,6.88
2024-02-15T14:31:48.992Z,10.05
2024-02-15T14:34:17.322Z,6.15
2024-02-15T14:36:44.804Z,9.65
2024-02-15T14:39:12.171Z,8.98
2024-02-15T14:41:49.156Z,10.82
2024-02-15T14:44:17.440Z,11.10
2024-02-15T14:46:44.940Z,9.95
2024-02-15T14:49:12.465Z,5.15
2024-02-15T14:51:40.817Z,8.57
2024-02-15T14:54:08.239Z,7.07
2024-02-15T14:59:06.375Z,9.63
2024-02-15T15:01:33.992Z,12.00
2024-02-15T15:04:04.754Z,12.70
2024-02-15T15:06:50.816Z,12.98
2024-02-15T15:09:36.542Z,10.35
2024-02-15T15:12:22.689Z,10.30
2024-02-15T15:14:50.124Z,10.18
2024-02-15T15:17:18.606Z,10.18
2024-02-15T15:19:45.948Z,7.03
2024-02-15T15:22:13.231Z,7.40
2024-02-15T15:24:40.490Z,6.40
2024-02-15T15:27:09.269Z,11.80
2024-02-15T15:29:36.562Z,7.50
2024-02-15T15:32:04.196Z,5.85
2024-02-15T15:34:31.470Z,6.68
2024-02-15T15:36:58.886Z,4.57
2024-02-15T15:39:26.261Z,7.22
2024-02-15T15:41:55.246Z,8.45
2024-02-15T15:44:24.075Z,6.70
2024-02-15T15:46:55.395Z,10.75
2024-02-15T15:49:25.659Z,11.38
2024-02-15T15:51:54.536Z,8.52
2024-02-15T15:54:21.876Z,12.18
2024-02-15T15:56:52.119Z,9.15
2024-02-15T15:59:19.741Z,6.53
2024-02-15T16:01:50.740Z,6.47
2024-02-15T16:04:18.353Z,13.13
2024-02-15T16:06:45.823Z,8.48
2024-02-15T16:09:14.249Z,10.70
2024-02-15T16:11:41.642Z,7.68
2024-02-15T16:14:14.918Z,9.20
2024-02-15T16:16:42.656Z,7.80
2024-02-15T16:19:09.991Z,11.10
2024-02-15T16:21:37.469Z,13.32
2024-02-15T16:24:05.756Z,10.38
2024-02-15T16:26:33.000Z,9.70
2024-02-15T16:29:01.778Z,9.38
2024-02-15T16:31:29.414Z,12.00
2024-02-15T16:33:58.048Z,9.10
2024-02-15T16:36:26.061Z,7.95
2024-02-15T16:38:53.387Z,9.00
2024-02-15T16:41:21.081Z,14.07
2024-02-15T16:43:50.274Z,17.40
2024-02-15T16:46:18.442Z,9.93
2024-02-15T16:48:46.050Z,10.48
2024-02-15T16:51:13.488Z,11.13
2024-02-15T16:53:41.379Z,11.93
2024-02-15T16:56:08.772Z,13.40
2024-02-15T16:58:35.939Z,15.68
2024-02-15T17:01:04.531Z,16.55
2024-02-15T17:03:31.846Z,10.40
2024-02-15T17:06:02.160Z,19.60
2024-02-15T17:08:29.556Z,14.73
2024-02-15T17:10:57.258Z,14.23
2024-02-15T17:13:24.782Z,12.43
2024-02-15T17:15:52.432Z,14.38
2024-02-15T17:18:24.670Z,13.60
2024-02-15T17:20:54.960Z,14.00
2024-02-15T17:23:26.515Z,14.13
2024-02-15T17:25:56.013Z,15.65
2024-02-15T17:28:23.359Z,12.90
2024-02-15T17:30:50.780Z,13.30
2024-02-15T17:33:19.773Z,11.32
2024-02-15T17:35:50.662Z,11.40
2024-02-15T17:38:18.544Z,11.82
2024-02-15T17:40:45.926Z,13.68
2024-02-15T17:43:13.223Z,14.32
2024-02-15T17:45:40.575Z,13.45
2024-02-15T17:48:08.609Z,13.85
2024-02-15T17:50:35.952Z,12.77
2024-02-15T17:53:03.190Z,15.65
2024-02-15T17:55:30.539Z,15.27
2024-02-15T17:57:58.525Z,16.52
2024-02-15T18:00:33.919Z,15.05
2024-02-15T18:03:03.014Z,17.17
2024-02-15T18:05:32.533Z,16.05
2024-02-15T18:07:59.951Z,12.73
2024-02-15T18:10:27.182Z,9.82
2024-02-15T18:12:55.390Z,9.70
2024-02-15T18:15:30.088Z,15.35
2024-02-15T18:17:58.511Z,14.05
2024-02-15T18:20:27.542Z,13.43
2024-02-15T18:22:55.286Z,20.65
2024-02-15T18:25:22.618Z,8.95
2024-02-15T18:27:49.924Z,11.15
2024-02-15T18:30:20.184Z,14.38
2024-02-15T18:32:49.317Z,13.98
2024-02-15T18:35:18.461Z,13.82
2024-02-15T18:37:48.042Z,15.70
2024-02-15T18:40:22.965Z,13.48
2024-02-15T18:42:53.990Z,17.50
2024-02-15T18:45:22.290Z,13.90
2024-02-15T18:47:50.049Z,11.52
2024-02-15T18:50:21.076Z,11.20
2024-02-15T18:52:49.002Z,14.25
2024-02-15T18:55:16.469Z,14.00
2024-02-15T18:57:43.882Z,9.88
2024-02-15T19:00:25.269Z,13.63
2024-02-15T19:03:01.350Z,15.40
2024-02-15T19:05:30.147Z,14.75
2024-02-15T19:07:59.157Z,13.30
2024-02-15T19:10:26.515Z,17.10
2024-02-15T19:12:54.907Z,13.50
2024-02-15T19:15:24.960Z,16.02
2024-02-15T19:17:52.967Z,13.77
2024-02-15T19:20:20.805Z,14.63
2024-02-15T19:22:48.194Z,14.43
2024-02-15T19:25:22.534Z,14.60
2024-02-15T19:27:50.553Z,16.60
2024-02-15T19:30:21.525Z,10.55
2024-02-15T19:32:51.508Z,21.15
2024-02-15T19:35:20.949Z,20.85
2024-02-15T19:37:48.568Z,18.85
2024-02-15T19:40:19.606Z,19.48
2024-02-15T19:42:49.879Z,16.80
2024-02-15T19:45:22.903Z,12.88
2024-02-15T19:47:53.082Z,14.33
2024-02-15T19:50:27.882Z,15.57
2024-02-15T19:52:55.896Z,18.77
2024-02-15T19:55:24.751Z,18.25
2024-02-15T19:57:53.209Z,17.35
2024-02-15T20:00:21.007Z,14.25
2024-02-15T20:02:50.042Z,14.98
2024-02-15T20:05:17.949Z,17.75
2024-02-15T20:07:46.145Z,14.05
2024-02-15T20:10:13.507Z,20.52
2024-02-15T20:12:40.866Z,18.17
2024-02-15T20:15:09.928Z,20.42
2024-02-15T20:17:38.221Z,16.40
2024-02-15T20:20:06.061Z,19.45
2024-02-15T20:22:33.381Z,15.65
2024-02-15T20:25:05.940Z,17.67
2024-02-15T20:27:34.678Z,16.40
2024-02-15T20:30:02.476Z,19.67
2024-02-15T20:32:30.816Z,19.75
2024-02-15T20:35:00.089Z,17.42
2024-02-15T20:37:27.597Z,15.88
2024-02-15T20:39:57.789Z,17.05
2024-02-15T20:42:26.398Z,14.75
2024-02-15T20:44:53.881Z,13.43
2024-02-15T20:47:23.812Z,15.90
2024-02-15T20:49:51.238Z,15.20
2024-02-15T20:52:19.366Z,14.10
2024-02-15T20:54:46.684Z,12.77
2024-02-15T20:57:17.753Z,12.98
2024-02-15T20:59:45.271Z,12.77
2024-02-15T21:02:14.101Z,13.85
2024-02-15T21:04:41.578Z,11.50
2024-02-15T21:07:09.645Z,13.85
2024-02-15T21:09:38.907Z,15.38
2024-02-15T21:12:08.355Z,13.18
2024-02-15T21:14:36.507Z,15.63
2024-02-15T21:17:04.253Z,13.93
2024-02-15T21:19:31.624Z,14.75
2024-02-15T21:21:59.273Z,12.00
2024-02-15T21:24:27.736Z,11.38
2024-02-15T21:26:55.316Z,11.32
2024-02-15T21:29:23.685Z,11.40
2024-02-15T21:31:52.508Z,12.18
2024-02-15T21:34:20.107Z,15.38
2024-02-15T21:36:47.563Z,15.90
2024-02-15T21:39:14.938Z,14.30
2024-02-15T21:41:42.343Z,14.43
2024-02-15T21:44:13.139Z,12.70
2024-02-15T21:46:43.033Z,12.43
2024-02-15T21:49:11.417Z,14.70
2024-02-15T21:51:38.930Z,13.23
2024-02-15T21:54:06.428Z,17.85
2024-02-15T21:56:33.791Z,12.25
2024-02-15T21:59:01.211Z,13.75
2024-02-15T22:01:28.756Z,14.10
2024-02-15T22:03:56.120Z,12.60
2024-02-15T22:06:23.644Z,14.32
2024-02-15T22:08:51.008Z,15.60
2024-02-15T22:11:19.968Z,12.43
2024-02-15T22:13:47.321Z,11.90
2024-02-15T22:16:17.269Z,15.60
2024-02-15T22:18:46.483Z,15.07
2024-02-15T22:21:14.004Z,11.48
2024-02-15T22:23:41.546Z,14.82
2024-02-15T22:26:20.514Z,15.60
2024-02-15T22:28:47.930Z,14.10
2024-02-15T22:31:23.236Z,16.80
2024-02-15T22:33:50.917Z,11.70
2024-02-15T22:36:26.213Z,13.40
2024-02-15T22:38:54.200Z,12.90
2024-02-15T22:41:22.568Z,17.52
2024-02-15T22:43:49.922Z,15.63
2024-02-15T22:46:17.478Z,13.57
2024-02-15T22:48:44.955Z,11.05
2024-02-15T22:51:13.183Z,17.35
2024-02-15T22:53:42.586Z,14.35
2024-02-15T22:56:14.628Z,11.35
2024-02-15T22:58:45.738Z,14.07
2024-02-15T23:01:14.489Z,12.27
2024-02-15T23:03:42.592Z,14.82
2024-02-15T23:06:12.291Z,11.18
2024-02-15T23:08:40.275Z,11.88
2024-02-15T23:11:08.219Z,10.70
2024-02-15T23:13:39.626Z,11.60
2024-02-15T23:16:08.693Z,12.02
2024-02-15T23:18:39.148Z,12.60
2024-02-15T23:21:06.764Z,14.57
2024-02-15T23:23:35.515Z,11.90
2024-02-15T23:26:03.196Z,14.40
2024-02-15T23:28:30.454Z,15.75
2024-02-15T23:30:57.842Z,12.02
2024-02-15T23:33:25.222Z,11.00
2024-02-15T23:36:13.733Z,13.90
2024-02-15T23:38:59.612Z,11.93
2024-02-15T23:41:27.418Z,16.45
2024-02-15T23:43:54.728Z,12.90
2024-02-15T23:46:22.061Z,13.05
2024-02-15T23:48:49.588Z,16.95
2024-02-15T23:51:17.069Z,12.10
2024-02-15T23:53:44.548Z,13.90
2024-02-15T23:56:11.886Z,11.05
2024-02-15T23:58:39.196Z,15.93
